KPMD/PMD METAR and TAF weather

Enter ICAO airport designator
Station Type Date Time Source
KPMD METAR 2020/10/20 16:53 UTC NOAA

KPMD 201653Z 32003KT 10SM CLR 23/M02 A3001 RMK AO2 SLP141 T02281017


Station Type Date Time Source
KPMD Decoded METAR 2020/10/20 16:53 UTC NOAA

PALMDALE PROD FLIGHT PLANT, CA, United States (KPMD) 34-38N 118-05W 780M
Oct 20, 2020 - 12:53 PM EDT / 2020.10.20 1653 UTC
Wind: from the NW (320 degrees) at 3 MPH (3 KT):0
Visibility: 10 mile(s):0
Sky conditions: clear
Temperature: 73.0 F (22.8 C)
Dew Point: 28.9 F (-1.7 C)
Relative Humidity: 19%
Pressure (altimeter): 30.01 in. Hg (1016 hPa)
ob: KPMD 201653Z 32003KT 10SM CLR 23/M02 A3001 RMK AO2 SLP141 T02281017
cycle: 17

Station Type Date Time Source
KPMD TAF 2020/10/20 18:42 UTC NOAA

TAF KPMD 201740Z 2018/2118 32003KT P6SM SKC
FM202200 28008KT P6SM SKC
FM210200 25008KT P6SM SKC
FM210600 19006KT P6SM SKC
AMD NOT SKED

Example: see airport list